sensor_id;sensor_type;location;lat;lon;timestamp;P1;durP1;ratioP1;P2;durP2;ratioP2
57441;SDS011;43284;47.042;15.498;2023-06-19T00:00:07;10.05;;;5.95;;
57441;SDS011;43284;47.042;15.498;2023-06-19T00:02:40;12.52;;;6.35;;
57441;SDS011;43284;47.042;15.498;2023-06-19T00:05:07;13.35;;;6.68;;
57441;SDS011;43284;47.042;15.498;2023-06-19T00:07:34;11.25;;;5.80;;
57441;SDS011;43284;47.042;15.498;2023-06-19T00:10:01;11.15;;;6.82;;
57441;SDS011;43284;47.042;15.498;2023-06-19T00:12:26;9.57;;;6.05;;
57441;SDS011;43284;47.042;15.498;2023-06-19T00:14:51;11.98;;;6.25;;
57441;SDS011;43284;47.042;15.498;2023-06-19T00:17:17;13.15;;;6.45;;
57441;SDS011;43284;47.042;15.498;2023-06-19T00:19:43;11.18;;;6.75;;
57441;SDS011;43284;47.042;15.498;2023-06-19T00:22:08;9.15;;;5.75;;
57441;SDS011;43284;47.042;15.498;2023-06-19T00:24:34;11.52;;;6.10;;
57441;SDS011;43284;47.042;15.498;2023-06-19T00:26:59;11.13;;;5.60;;
57441;SDS011;43284;47.042;15.498;2023-06-19T00:29:31;10.65;;;6.10;;
57441;SDS011;43284;47.042;15.498;2023-06-19T00:31:58;13.77;;;6.03;;
57441;SDS011;43284;47.042;15.498;2023-06-19T00:34:23;11.80;;;5.85;;
57441;SDS011;43284;47.042;15.498;2023-06-19T00:36:50;11.95;;;6.60;;
57441;SDS011;43284;47.042;15.498;2023-06-19T00:39:16;11.05;;;5.95;;
57441;SDS011;43284;47.042;15.498;2023-06-19T00:41:42;12.40;;;6.55;;
57441;SDS011;43284;47.042;15.498;2023-06-19T00:44:09;10.38;;;5.82;;
57441;SDS011;43284;47.042;15.498;2023-06-19T00:46:38;10.48;;;6.55;;
57441;SDS011;43284;47.042;15.498;2023-06-19T00:49:05;9.70;;;6.60;;
57441;SDS011;43284;47.042;15.498;2023-06-19T00:51:31;11.40;;;6.85;;
57441;SDS011;43284;47.042;15.498;2023-06-19T00:53:57;10.40;;;6.13;;
57441;SDS011;43284;47.042;15.498;2023-06-19T00:56:23;14.00;;;6.85;;
57441;SDS011;43284;47.042;15.498;2023-06-19T00:58:48;12.60;;;6.07;;
57441;SDS011;43284;47.042;15.498;2023-06-19T01:01:14;11.60;;;6.28;;
57441;SDS011;43284;47.042;15.498;2023-06-19T01:03:40;14.57;;;6.60;;
57441;SDS011;43284;47.042;15.498;2023-06-19T01:06:07;10.43;;;6.32;;
57441;SDS011;43284;47.042;15.498;2023-06-19T01:08:43;9.90;;;6.38;;
57441;SDS011;43284;47.042;15.498;2023-06-19T01:11:17;11.30;;;6.15;;
57441;SDS011;43284;47.042;15.498;2023-06-19T01:13:50;10.13;;;6.57;;
57441;SDS011;43284;47.042;15.498;2023-06-19T01:16:23;13.55;;;7.07;;
57441;SDS011;43284;47.042;15.498;2023-06-19T01:18:49;11.82;;;6.82;;
57441;SDS011;43284;47.042;15.498;2023-06-19T01:21:16;10.85;;;6.65;;
57441;SDS011;43284;47.042;15.498;2023-06-19T01:23:43;13.00;;;6.72;;
57441;SDS011;43284;47.042;15.498;2023-06-19T01:26:09;14.95;;;7.18;;
57441;SDS011;43284;47.042;15.498;2023-06-19T01:28:35;10.52;;;6.32;;
57441;SDS011;43284;47.042;15.498;2023-06-19T01:31:03;10.82;;;6.90;;
57441;SDS011;43284;47.042;15.498;2023-06-19T01:33:33;9.95;;;6.35;;
57441;SDS011;43284;47.042;15.498;2023-06-19T01:36:03;13.82;;;6.93;;
57441;SDS011;43284;47.042;15.498;2023-06-19T01:38:30;10.20;;;6.68;;
57441;SDS011;43284;47.042;15.498;2023-06-19T01:40:56;12.40;;;7.05;;
57441;SDS011;43284;47.042;15.498;2023-06-19T01:43:24;14.10;;;7.28;;
57441;SDS011;43284;47.042;15.498;2023-06-19T01:45:52;11.45;;;6.85;;
57441;SDS011;43284;47.042;15.498;2023-06-19T01:48:17;9.95;;;6.13;;
57441;SDS011;43284;47.042;15.498;2023-06-19T01:50:46;12.82;;;7.40;;
57441;SDS011;43284;47.042;15.498;2023-06-19T01:53:13;13.77;;;7.60;;
57441;SDS011;43284;47.042;15.498;2023-06-19T01:55:39;12.82;;;7.45;;
57441;SDS011;43284;47.042;15.498;2023-06-19T01:58:04;11.20;;;7.20;;
57441;SDS011;43284;47.042;15.498;2023-06-19T02:00:30;10.98;;;6.75;;
57441;SDS011;43284;47.042;15.498;2023-06-19T02:03:00;13.23;;;7.63;;
57441;SDS011;43284;47.042;15.498;2023-06-19T02:05:25;12.57;;;6.40;;
57441;SDS011;43284;47.042;15.498;2023-06-19T02:07:51;11.65;;;6.90;;
57441;SDS011;43284;47.042;15.498;2023-06-19T02:10:16;11.85;;;7.50;;
57441;SDS011;43284;47.042;15.498;2023-06-19T02:12:42;12.02;;;7.32;;
57441;SDS011;43284;47.042;15.498;2023-06-19T02:15:07;12.05;;;7.25;;
57441;SDS011;43284;47.042;15.498;2023-06-19T02:17:33;14.13;;;8.00;;
57441;SDS011;43284;47.042;15.498;2023-06-19T02:19:59;12.55;;;7.68;;
57441;SDS011;43284;47.042;15.498;2023-06-19T02:22:24;15.02;;;8.63;;
57441;SDS011;43284;47.042;15.498;2023-06-19T02:24:50;12.52;;;7.53;;
57441;SDS011;43284;47.042;15.498;2023-06-19T02:27:15;13.25;;;7.85;;
57441;SDS011;43284;47.042;15.498;2023-06-19T02:29:41;15.07;;;8.48;;
57441;SDS011;43284;47.042;15.498;2023-06-19T02:32:07;15.60;;;9.05;;
57441;SDS011;43284;47.042;15.498;2023-06-19T02:34:32;14.23;;;8.45;;
57441;SDS011;43284;47.042;15.498;2023-06-19T02:36:58;19.05;;;9.65;;
57441;SDS011;43284;47.042;15.498;2023-06-19T02:39:24;13.27;;;7.63;;
57441;SDS011;43284;47.042;15.498;2023-06-19T02:41:49;13.65;;;8.05;;
57441;SDS011;43284;47.042;15.498;2023-06-19T02:44:15;16.45;;;9.07;;
57441;SDS011;43284;47.042;15.498;2023-06-19T02:46:40;17.77;;;9.48;;
57441;SDS011;43284;47.042;15.498;2023-06-19T02:49:06;15.45;;;7.47;;
57441;SDS011;43284;47.042;15.498;2023-06-19T02:51:31;16.77;;;9.70;;
57441;SDS011;43284;47.042;15.498;2023-06-19T02:53:57;13.68;;;8.23;;
57441;SDS011;43284;47.042;15.498;2023-06-19T02:56:23;13.82;;;7.90;;
57441;SDS011;43284;47.042;15.498;2023-06-19T02:58:50;14.23;;;8.38;;
57441;SDS011;43284;47.042;15.498;2023-06-19T03:01:15;12.43;;;7.28;;
57441;SDS011;43284;47.042;15.498;2023-06-19T03:03:41;11.93;;;7.70;;
57441;SDS011;43284;47.042;15.498;2023-06-19T03:06:07;13.93;;;7.55;;
57441;SDS011;43284;47.042;15.498;2023-06-19T03:08:34;12.55;;;7.63;;
57441;SDS011;43284;47.042;15.498;2023-06-19T03:11:00;13.65;;;7.93;;
57441;SDS011;43284;47.042;15.498;2023-06-19T03:13:26;14.35;;;8.68;;
57441;SDS011;43284;47.042;15.498;2023-06-19T03:15:51;14.75;;;7.90;;
57441;SDS011;43284;47.042;15.498;2023-06-19T03:18:17;15.32;;;8.95;;
57441;SDS011;43284;47.042;15.498;2023-06-19T03:20:42;14.63;;;7.97;;
57441;SDS011;43284;47.042;15.498;2023-06-19T03:23:08;14.90;;;8.57;;
57441;SDS011;43284;47.042;15.498;2023-06-19T03:25:33;14.63;;;8.30;;
57441;SDS011;43284;47.042;15.498;2023-06-19T03:28:03;13.20;;;8.57;;
57441;SDS011;43284;47.042;15.498;2023-06-19T03:30:29;12.05;;;8.48;;
57441;SDS011;43284;47.042;15.498;2023-06-19T03:32:55;14.85;;;9.02;;
57441;SDS011;43284;47.042;15.498;2023-06-19T03:35:20;14.43;;;9.35;;
57441;SDS011;43284;47.042;15.498;2023-06-19T03:37:46;12.07;;;7.57;;
57441;SDS011;43284;47.042;15.498;2023-06-19T03:40:11;14.40;;;8.95;;
57441;SDS011;43284;47.042;15.498;2023-06-19T03:42:39;14.10;;;8.65;;
57441;SDS011;43284;47.042;15.498;2023-06-19T03:45:05;17.00;;;8.80;;
57441;SDS011;43284;47.042;15.498;2023-06-19T03:47:31;14.70;;;8.18;;
57441;SDS011;43284;47.042;15.498;2023-06-19T03:49:57;14.60;;;8.80;;
57441;SDS011;43284;47.042;15.498;2023-06-19T03:52:22;15.07;;;8.65;;
57441;SDS011;43284;47.042;15.498;2023-06-19T03:54:48;16.23;;;8.43;;
57441;SDS011;43284;47.042;15.498;2023-06-19T03:57:14;16.05;;;8.63;;
57441;SDS011;43284;47.042;15.498;2023-06-19T03:59:40;15.95;;;9.25;;
57441;SDS011;43284;47.042;15.498;2023-06-19T04:02:05;14.63;;;8.05;;
57441;SDS011;43284;47.042;15.498;2023-06-19T04:04:31;14.65;;;8.15;;
57441;SDS011;43284;47.042;15.498;2023-06-19T04:06:56;15.20;;;8.60;;
57441;SDS011;43284;47.042;15.498;2023-06-19T04:09:24;14.10;;;8.63;;
57441;SDS011;43284;47.042;15.498;2023-06-19T04:11:50;14.63;;;8.02;;
57441;SDS011;43284;47.042;15.498;2023-06-19T04:14:15;14.65;;;8.15;;
57441;SDS011;43284;47.042;15.498;2023-06-19T04:16:41;18.40;;;8.45;;
57441;SDS011;43284;47.042;15.498;2023-06-19T04:19:06;18.83;;;8.77;;
57441;SDS011;43284;47.042;15.498;2023-06-19T04:21:32;13.45;;;8.52;;
57441;SDS011;43284;47.042;15.498;2023-06-19T04:23:57;18.92;;;9.18;;
57441;SDS011;43284;47.042;15.498;2023-06-19T04:26:23;18.05;;;9.68;;
57441;SDS011;43284;47.042;15.498;2023-06-19T04:28:49;15.00;;;9.20;;
57441;SDS011;43284;47.042;15.498;2023-06-19T04:31:15;13.50;;;8.18;;
57441;SDS011;43284;47.042;15.498;2023-06-19T04:33:46;16.20;;;8.98;;
57441;SDS011;43284;47.042;15.498;2023-06-19T04:36:12;15.60;;;8.65;;
57441;SDS011;43284;47.042;15.498;2023-06-19T04:38:37;16.58;;;9.10;;
57441;SDS011;43284;47.042;15.498;2023-06-19T04:41:03;16.33;;;8.85;;
57441;SDS011;43284;47.042;15.498;2023-06-19T04:43:28;16.80;;;8.90;;
57441;SDS011;43284;47.042;15.498;2023-06-19T04:45:54;18.83;;;9.60;;
57441;SDS011;43284;47.042;15.498;2023-06-19T04:48:20;17.77;;;9.15;;
57441;SDS011;43284;47.042;15.498;2023-06-19T04:50:49;15.70;;;8.90;;
57441;SDS011;43284;47.042;15.498;2023-06-19T04:53:15;15.85;;;8.52;;
57441;SDS011;43284;47.042;15.498;2023-06-19T04:55:41;16.70;;;9.13;;
57441;SDS011;43284;47.042;15.498;2023-06-19T04:58:06;16.35;;;9.48;;
57441;SDS011;43284;47.042;15.498;2023-06-19T05:00:32;17.58;;;9.02;;
57441;SDS011;43284;47.042;15.498;2023-06-19T05:02:57;20.45;;;9.65;;
57441;SDS011;43284;47.042;15.498;2023-06-19T05:05:26;13.57;;;8.85;;
57441;SDS011;43284;47.042;15.498;2023-06-19T05:07:53;14.25;;;8.70;;
57441;SDS011;43284;47.042;15.498;2023-06-19T05:10:18;14.88;;;9.05;;
57441;SDS011;43284;47.042;15.498;2023-06-19T05:12:44;17.63;;;9.88;;
57441;SDS011;43284;47.042;15.498;2023-06-19T05:15:10;12.35;;;8.07;;
57441;SDS011;43284;47.042;15.498;2023-06-19T05:17:36;17.42;;;8.32;;
57441;SDS011;43284;47.042;15.498;2023-06-19T05:20:04;13.25;;;8.25;;
57441;SDS011;43284;47.042;15.498;2023-06-19T05:22:32;14.57;;;8.32;;
57441;SDS011;43284;47.042;15.498;2023-06-19T05:24:59;15.05;;;8.45;;
57441;SDS011;43284;47.042;15.498;2023-06-19T05:27:25;15.88;;;8.80;;
57441;SDS011;43284;47.042;15.498;2023-06-19T05:29:50;18.10;;;9.10;;
57441;SDS011;43284;47.042;15.498;2023-06-19T05:32:16;14.70;;;8.50;;
57441;SDS011;43284;47.042;15.498;2023-06-19T05:34:41;16.38;;;8.65;;
57441;SDS011;43284;47.042;15.498;2023-06-19T05:37:07;17.90;;;9.02;;
57441;SDS011;43284;47.042;15.498;2023-06-19T05:39:32;15.88;;;9.15;;
57441;SDS011;43284;47.042;15.498;2023-06-19T05:41:57;12.30;;;7.90;;
57441;SDS011;43284;47.042;15.498;2023-06-19T05:44:23;26.15;;;9.63;;
57441;SDS011;43284;47.042;15.498;2023-06-19T05:46:48;19.08;;;9.63;;
57441;SDS011;43284;47.042;15.498;2023-06-19T05:49:14;13.82;;;7.80;;
57441;SDS011;43284;47.042;15.498;2023-06-19T05:51:40;15.75;;;9.23;;
57441;SDS011;43284;47.042;15.498;2023-06-19T05:54:05;13.98;;;8.15;;
57441;SDS011;43284;47.042;15.498;2023-06-19T05:56:31;15.45;;;7.85;;
57441;SDS011;43284;47.042;15.498;2023-06-19T05:58:58;13.80;;;8.45;;
57441;SDS011;43284;47.042;15.498;2023-06-19T06:01:25;15.00;;;8.57;;
57441;SDS011;43284;47.042;15.498;2023-06-19T06:03:53;16.27;;;8.35;;
57441;SDS011;43284;47.042;15.498;2023-06-19T06:06:19;15.52;;;8.02;;
57441;SDS011;43284;47.042;15.498;2023-06-19T06:08:44;20.50;;;8.57;;
57441;SDS011;43284;47.042;15.498;2023-06-19T06:11:10;15.27;;;8.50;;
57441;SDS011;43284;47.042;15.498;2023-06-19T06:13:35;16.58;;;8.90;;
57441;SDS011;43284;47.042;15.498;2023-06-19T06:16:01;13.40;;;8.43;;
57441;SDS011;43284;47.042;15.498;2023-06-19T06:18:26;15.25;;;8.55;;
57441;SDS011;43284;47.042;15.498;2023-06-19T06:20:52;12.45;;;7.65;;
57441;SDS011;43284;47.042;15.498;2023-06-19T06:23:18;16.45;;;8.63;;
57441;SDS011;43284;47.042;15.498;2023-06-19T06:25:43;18.75;;;9.15;;
57441;SDS011;43284;47.042;15.498;2023-06-19T06:28:10;16.52;;;8.60;;
57441;SDS011;43284;47.042;15.498;2023-06-19T06:30:36;17.80;;;8.20;;
57441;SDS011;43284;47.042;15.498;2023-06-19T06:33:02;16.30;;;8.35;;
57441;SDS011;43284;47.042;15.498;2023-06-19T06:35:27;16.42;;;8.55;;
57441;SDS011;43284;47.042;15.498;2023-06-19T06:37:53;15.63;;;8.25;;
57441;SDS011;43284;47.042;15.498;2023-06-19T06:40:19;14.82;;;8.38;;
57441;SDS011;43284;47.042;15.498;2023-06-19T06:42:44;17.48;;;9.02;;
57441;SDS011;43284;47.042;15.498;2023-06-19T06:45:10;18.55;;;7.97;;
57441;SDS011;43284;47.042;15.498;2023-06-19T06:47:35;14.57;;;8.55;;
57441;SDS011;43284;47.042;15.498;2023-06-19T06:50:01;14.50;;;8.57;;
57441;SDS011;43284;47.042;15.498;2023-06-19T06:52:26;14.18;;;9.10;;
57441;SDS011;43284;47.042;15.498;2023-06-19T06:54:53;16.50;;;9.20;;
57441;SDS011;43284;47.042;15.498;2023-06-19T06:57:18;15.23;;;8.27;;
57441;SDS011;43284;47.042;15.498;2023-06-19T06:59:44;20.80;;;9.75;;
57441;SDS011;43284;47.042;15.498;2023-06-19T07:02:09;20.27;;;8.50;;
57441;SDS011;43284;47.042;15.498;2023-06-19T07:04:35;16.17;;;8.50;;
57441;SDS011;43284;47.042;15.498;2023-06-19T07:07:00;17.48;;;8.80;;
57441;SDS011;43284;47.042;15.498;2023-06-19T07:09:26;15.55;;;8.20;;
57441;SDS011;43284;47.042;15.498;2023-06-19T07:11:52;18.05;;;8.95;;
57441;SDS011;43284;47.042;15.498;2023-06-19T07:14:17;19.92;;;8.90;;
57441;SDS011;43284;47.042;15.498;2023-06-19T07:16:46;15.23;;;8.35;;
57441;SDS011;43284;47.042;15.498;2023-06-19T07:19:12;14.38;;;8.73;;
57441;SDS011;43284;47.042;15.498;2023-06-19T07:21:38;19.77;;;8.63;;
57441;SDS011;43284;47.042;15.498;2023-06-19T07:24:05;15.45;;;8.80;;
57441;SDS011;43284;47.042;15.498;2023-06-19T07:26:31;17.27;;;8.63;;
57441;SDS011;43284;47.042;15.498;2023-06-19T07:28:56;16.92;;;8.93;;
57441;SDS011;43284;47.042;15.498;2023-06-19T07:31:22;19.52;;;9.13;;
57441;SDS011;43284;47.042;15.498;2023-06-19T07:33:48;16.25;;;8.05;;
57441;SDS011;43284;47.042;15.498;2023-06-19T07:36:13;12.00;;;7.32;;
57441;SDS011;43284;47.042;15.498;2023-06-19T07:38:41;13.63;;;8.05;;
57441;SDS011;43284;47.042;15.498;2023-06-19T07:41:08;14.18;;;8.00;;
57441;SDS011;43284;47.042;15.498;2023-06-19T07:43:36;20.92;;;9.43;;
57441;SDS011;43284;47.042;15.498;2023-06-19T07:46:02;24.67;;;10.90;;
57441;SDS011;43284;47.042;15.498;2023-06-19T07:48:28;14.25;;;8.68;;
57441;SDS011;43284;47.042;15.498;2023-06-19T07:50:54;16.13;;;9.23;;
57441;SDS011;43284;47.042;15.498;2023-06-19T07:53:20;15.85;;;8.70;;
57441;SDS011;43284;47.042;15.498;2023-06-19T07:55:45;15.85;;;8.77;;
57441;SDS011;43284;47.042;15.498;2023-06-19T07:58:11;14.23;;;8.25;;
57441;SDS011;43284;47.042;15.498;2023-06-19T08:00:37;15.73;;;8.38;;
57441;SDS011;43284;47.042;15.498;2023-06-19T08:03:02;16.27;;;8.75;;
57441;SDS011;43284;47.042;15.498;2023-06-19T08:05:28;14.55;;;8.88;;
57441;SDS011;43284;47.042;15.498;2023-06-19T08:07:53;13.57;;;8.35;;
57441;SDS011;43284;47.042;15.498;2023-06-19T08:10:21;16.40;;;8.45;;
57441;SDS011;43284;47.042;15.498;2023-06-19T08:12:46;17.45;;;8.82;;
57441;SDS011;43284;47.042;15.498;2023-06-19T08:15:12;16.65;;;9.23;;
57441;SDS011;43284;47.042;15.498;2023-06-19T08:17:41;17.80;;;9.60;;
57441;SDS011;43284;47.042;15.498;2023-06-19T08:20:07;17.50;;;9.30;;
57441;SDS011;43284;47.042;15.498;2023-06-19T08:22:33;15.95;;;8.50;;
57441;SDS011;43284;47.042;15.498;2023-06-19T08:24:59;13.18;;;8.25;;
57441;SDS011;43284;47.042;15.498;2023-06-19T08:27:25;17.83;;;8.77;;
57441;SDS011;43284;47.042;15.498;2023-06-19T08:29:50;19.42;;;8.88;;
57441;SDS011;43284;47.042;15.498;2023-06-19T08:32:16;18.55;;;8.45;;
57441;SDS011;43284;47.042;15.498;2023-06-19T08:34:42;16.33;;;8.50;;
57441;SDS011;43284;47.042;15.498;2023-06-19T08:37:07;14.88;;;8.50;;
57441;SDS011;43284;47.042;15.498;2023-06-19T08:39:33;17.35;;;8.98;;
57441;SDS011;43284;47.042;15.498;2023-06-19T08:41:59;17.40;;;8.98;;
57441;SDS011;43284;47.042;15.498;2023-06-19T08:44:24;14.98;;;8.80;;
57441;SDS011;43284;47.042;15.498;2023-06-19T08:46:50;12.88;;;8.18;;
57441;SDS011;43284;47.042;15.498;2023-06-19T08:49:16;13.63;;;9.18;;
57441;SDS011;43284;47.042;15.498;2023-06-19T08:51:41;13.43;;;8.45;;
57441;SDS011;43284;47.042;15.498;2023-06-19T08:54:07;12.65;;;8.43;;
57441;SDS011;43284;47.042;15.498;2023-06-19T08:56:34;10.95;;;7.50;;
57441;SDS011;43284;47.042;15.498;2023-06-19T09:01:39;12.38;;;8.05;;
57441;SDS011;43284;47.042;15.498;2023-06-19T09:04:08;25.73;;;9.45;;
57441;SDS011;43284;47.042;15.498;2023-06-19T09:06:35;17.90;;;8.25;;
57441;SDS011;43284;47.042;15.498;2023-06-19T09:09:04;12.93;;;7.70;;
57441;SDS011;43284;47.042;15.498;2023-06-19T09:11:35;13.77;;;8.48;;
57441;SDS011;43284;47.042;15.498;2023-06-19T09:14:00;15.15;;;8.55;;
57441;SDS011;43284;47.042;15.498;2023-06-19T09:16:35;11.85;;;8.23;;
57441;SDS011;43284;47.042;15.498;2023-06-19T09:19:02;12.73;;;7.30;;
57441;SDS011;43284;47.042;15.498;2023-06-19T09:21:28;13.15;;;8.32;;
57441;SDS011;43284;47.042;15.498;2023-06-19T09:23:53;12.85;;;7.80;;
57441;SDS011;43284;47.042;15.498;2023-06-19T09:26:19;11.90;;;7.82;;
57441;SDS011;43284;47.042;15.498;2023-06-19T09:28:45;15.57;;;7.78;;
57441;SDS011;43284;47.042;15.498;2023-06-19T09:31:11;15.98;;;8.57;;
57441;SDS011;43284;47.042;15.498;2023-06-19T09:33:38;12.73;;;8.73;;
57441;SDS011;43284;47.042;15.498;2023-06-19T09:36:05;12.35;;;7.70;;
57441;SDS011;43284;47.042;15.498;2023-06-19T09:38:32;12.30;;;7.88;;
57441;SDS011;43284;47.042;15.498;2023-06-19T09:41:02;12.18;;;8.07;;
57441;SDS011;43284;47.042;15.498;2023-06-19T09:46:31;10.82;;;7.30;;
57441;SDS011;43284;47.042;15.498;2023-06-19T09:49:01;14.32;;;8.13;;
57441;SDS011;43284;47.042;15.498;2023-06-19T09:51:31;13.02;;;7.30;;
57441;SDS011;43284;47.042;15.498;2023-06-19T09:53:58;9.57;;;6.88;;
57441;SDS011;43284;47.042;15.498;2023-06-19T09:56:27;11.02;;;6.75;;
57441;SDS011;43284;47.042;15.498;2023-06-19T09:58:53;13.00;;;6.57;;
57441;SDS011;43284;47.042;15.498;2023-06-19T10:01:21;11.20;;;7.13;;
57441;SDS011;43284;47.042;15.498;2023-06-19T10:03:48;10.80;;;6.65;;
57441;SDS011;43284;47.042;15.498;2023-06-19T10:06:14;18.63;;;7.53;;
57441;SDS011;43284;47.042;15.498;2023-06-19T10:08:43;11.73;;;7.10;;
57441;SDS011;43284;47.042;15.498;2023-06-19T10:11:09;10.50;;;6.78;;
57441;SDS011;43284;47.042;15.498;2023-06-19T10:13:36;12.38;;;7.45;;
57441;SDS011;43284;47.042;15.498;2023-06-19T10:16:19;10.00;;;7.15;;
57441;SDS011;43284;47.042;15.498;2023-06-19T10:18:46;12.95;;;7.13;;
57441;SDS011;43284;47.042;15.498;2023-06-19T10:21:21;11.20;;;6.78;;
57441;SDS011;43284;47.042;15.498;2023-06-19T10:23:54;10.57;;;7.00;;
57441;SDS011;43284;47.042;15.498;2023-06-19T10:26:28;9.43;;;6.53;;
57441;SDS011;43284;47.042;15.498;2023-06-19T10:28:57;10.90;;;6.95;;
57441;SDS011;43284;47.042;15.498;2023-06-19T10:31:23;10.57;;;6.82;;
57441;SDS011;43284;47.042;15.498;2023-06-19T10:33:49;10.18;;;6.90;;
57441;SDS011;43284;47.042;15.498;2023-06-19T10:36:15;10.55;;;6.50;;
57441;SDS011;43284;47.042;15.498;2023-06-19T10:38:44;10.60;;;6.57;;
57441;SDS011;43284;47.042;15.498;2023-06-19T10:41:23;8.52;;;6.20;;
57441;SDS011;43284;47.042;15.498;2023-06-19T10:43:54;12.65;;;7.35;;
57441;SDS011;43284;47.042;15.498;2023-06-19T10:46:21;10.27;;;7.28;;
57441;SDS011;43284;47.042;15.498;2023-06-19T10:48:48;10.77;;;6.75;;
57441;SDS011;43284;47.042;15.498;2023-06-19T10:51:17;9.77;;;7.00;;
57441;SDS011;43284;47.042;15.498;2023-06-19T10:53:46;9.70;;;6.85;;
57441;SDS011;43284;47.042;15.498;2023-06-19T10:56:11;9.30;;;6.53;;
57441;SDS011;43284;47.042;15.498;2023-06-19T10:58:37;9.30;;;6.68;;
57441;SDS011;43284;47.042;15.498;2023-06-19T11:01:02;11.18;;;7.43;;
57441;SDS011;43284;47.042;15.498;2023-06-19T11:03:28;9.82;;;7.50;;
57441;SDS011;43284;47.042;15.498;2023-06-19T11:05:54;9.77;;;6.90;;
57441;SDS011;43284;47.042;15.498;2023-06-19T11:08:22;9.57;;;6.90;;
57441;SDS011;43284;47.042;15.498;2023-06-19T11:10:49;11.07;;;7.28;;
57441;SDS011;43284;47.042;15.498;2023-06-19T11:13:16;9.85;;;7.07;;
57441;SDS011;43284;47.042;15.498;2023-06-19T11:15:43;9.95;;;7.25;;
57441;SDS011;43284;47.042;15.498;2023-06-19T11:18:10;11.15;;;7.32;;
57441;SDS011;43284;47.042;15.498;2023-06-19T11:20:51;10.77;;;7.22;;
57441;SDS011;43284;47.042;15.498;2023-06-19T11:23:29;9.98;;;7.13;;
57441;SDS011;43284;47.042;15.498;2023-06-19T11:26:04;11.98;;;7.10;;
57441;SDS011;43284;47.042;15.498;2023-06-19T11:28:31;9.63;;;7.18;;
57441;SDS011;43284;47.042;15.498;2023-06-19T11:30:57;10.50;;;7.32;;
57441;SDS011;43284;47.042;15.498;2023-06-19T11:33:30;14.63;;;8.02;;
57441;SDS011;43284;47.042;15.498;2023-06-19T11:35:59;10.63;;;7.10;;
57441;SDS011;43284;47.042;15.498;2023-06-19T11:38:26;10.70;;;7.03;;
57441;SDS011;43284;47.042;15.498;2023-06-19T11:40:52;11.75;;;7.28;;
57441;SDS011;43284;47.042;15.498;2023-06-19T11:43:26;11.07;;;6.85;;
57441;SDS011;43284;47.042;15.498;2023-06-19T11:46:02;10.15;;;6.85;;
57441;SDS011;43284;47.042;15.498;2023-06-19T11:48:29;10.57;;;6.85;;
57441;SDS011;43284;47.042;15.498;2023-06-19T11:50:54;12.43;;;7.57;;
57441;SDS011;43284;47.042;15.498;2023-06-19T11:53:20;11.35;;;7.40;;
57441;SDS011;43284;47.042;15.498;2023-06-19T11:55:47;10.77;;;7.35;;
57441;SDS011;43284;47.042;15.498;2023-06-19T11:58:13;8.40;;;6.53;;
57441;SDS011;43284;47.042;15.498;2023-06-19T12:00:40;11.25;;;7.68;;
57441;SDS011;43284;47.042;15.498;2023-06-19T12:03:06;10.52;;;7.13;;
57441;SDS011;43284;47.042;15.498;2023-06-19T12:05:32;11.30;;;7.50;;
57441;SDS011;43284;47.042;15.498;2023-06-19T12:07:57;10.90;;;7.53;;
57441;SDS011;43284;47.042;15.498;2023-06-19T12:10:23;11.32;;;7.57;;
57441;SDS011;43284;47.042;15.498;2023-06-19T12:12:48;10.65;;;7.60;;
57441;SDS011;43284;47.042;15.498;2023-06-19T12:15:14;14.18;;;8.40;;
57441;SDS011;43284;47.042;15.498;2023-06-19T12:17:40;9.15;;;6.88;;
57441;SDS011;43284;47.042;15.498;2023-06-19T12:20:06;10.55;;;7.32;;
57441;SDS011;43284;47.042;15.498;2023-06-19T12:22:33;12.93;;;7.85;;
57441;SDS011;43284;47.042;15.498;2023-06-19T12:25:00;12.18;;;7.45;;
57441;SDS011;43284;47.042;15.498;2023-06-19T12:27:26;12.43;;;8.02;;
57441;SDS011;43284;47.042;15.498;2023-06-19T12:29:51;10.55;;;7.22;;
57441;SDS011;43284;47.042;15.498;2023-06-19T12:32:17;9.80;;;7.10;;
57441;SDS011;43284;47.042;15.498;2023-06-19T12:34:42;13.57;;;7.82;;
57441;SDS011;43284;47.042;15.498;2023-06-19T12:37:14;11.70;;;7.63;;
57441;SDS011;43284;47.042;15.498;2023-06-19T12:39:42;13.60;;;8.23;;
57441;SDS011;43284;47.042;15.498;2023-06-19T12:42:08;15.07;;;7.75;;
57441;SDS011;43284;47.042;15.498;2023-06-19T12:44:37;12.07;;;7.85;;
57441;SDS011;43284;47.042;15.498;2023-06-19T12:47:02;9.70;;;7.20;;
57441;SDS011;43284;47.042;15.498;2023-06-19T12:49:30;11.70;;;7.22;;
57441;SDS011;43284;47.042;15.498;2023-06-19T12:51:55;11.32;;;8.18;;
57441;SDS011;43284;47.042;15.498;2023-06-19T12:54:21;9.85;;;7.57;;
57441;SDS011;43284;47.042;15.498;2023-06-19T12:56:47;9.57;;;7.35;;
57441;SDS011;43284;47.042;15.498;2023-06-19T12:59:13;10.90;;;7.22;;
57441;SDS011;43284;47.042;15.498;2023-06-19T13:01:39;9.73;;;7.55;;
57441;SDS011;43284;47.042;15.498;2023-06-19T13:04:04;9.95;;;7.82;;
57441;SDS011;43284;47.042;15.498;2023-06-19T13:06:29;11.63;;;7.97;;
57441;SDS011;43284;47.042;15.498;2023-06-19T13:08:55;11.52;;;8.05;;
57441;SDS011;43284;47.042;15.498;2023-06-19T13:11:21;10.88;;;7.40;;
57441;SDS011;43284;47.042;15.498;2023-06-19T13:13:46;12.52;;;8.00;;
57441;SDS011;43284;47.042;15.498;2023-06-19T13:16:12;12.18;;;8.20;;
57441;SDS011;43284;47.042;15.498;2023-06-19T13:18:37;11.98;;;8.10;;
57441;SDS011;43284;47.042;15.498;2023-06-19T13:21:03;13.77;;;7.90;;
57441;SDS011;43284;47.042;15.498;2023-06-19T13:23:28;10.55;;;7.70;;
57441;SDS011;43284;47.042;15.498;2023-06-19T13:25:56;9.38;;;7.38;;
57441;SDS011;43284;47.042;15.498;2023-06-19T13:28:22;9.05;;;6.93;;
57441;SDS011;43284;47.042;15.498;2023-06-19T13:30:47;11.77;;;7.45;;
57441;SDS011;43284;47.042;15.498;2023-06-19T13:33:13;8.20;;;6.65;;
57441;SDS011;43284;47.042;15.498;2023-06-19T13:35:38;11.27;;;7.45;;
57441;SDS011;43284;47.042;15.498;2023-06-19T13:38:04;10.90;;;7.10;;
57441;SDS011;43284;47.042;15.498;2023-06-19T13:40:29;10.32;;;7.10;;
57441;SDS011;43284;47.042;15.498;2023-06-19T13:42:55;11.43;;;7.32;;
57441;SDS011;43284;47.042;15.498;2023-06-19T13:45:21;10.85;;;7.22;;
57441;SDS011;43284;47.042;15.498;2023-06-19T13:47:46;9.20;;;6.70;;
57441;SDS011;43284;47.042;15.498;2023-06-19T13:50:12;9.30;;;6.60;;
57441;SDS011;43284;47.042;15.498;2023-06-19T13:52:43;9.55;;;6.70;;
57441;SDS011;43284;47.042;15.498;2023-06-19T13:55:09;10.18;;;6.80;;
57441;SDS011;43284;47.042;15.498;2023-06-19T13:57:35;13.85;;;7.07;;
57441;SDS011;43284;47.042;15.498;2023-06-19T14:00:02;9.85;;;7.15;;
57441;SDS011;43284;47.042;15.498;2023-06-19T14:02:28;11.20;;;6.90;;
57441;SDS011;43284;47.042;15.498;2023-06-19T14:04:53;8.93;;;6.70;;
57441;SDS011;43284;47.042;15.498;2023-06-19T14:07:19;11.43;;;7.05;;
57441;SDS011;43284;47.042;15.498;2023-06-19T14:09:47;10.48;;;7.20;;
57441;SDS011;43284;47.042;15.498;2023-06-19T14:12:13;10.90;;;7.25;;
57441;SDS011;43284;47.042;15.498;2023-06-19T14:14:38;10.05;;;6.95;;
57441;SDS011;43284;47.042;15.498;2023-06-19T14:17:04;11.27;;;7.35;;
57441;SDS011;43284;47.042;15.498;2023-06-19T14:19:29;9.35;;;7.00;;
57441;SDS011;43284;47.042;15.498;2023-06-19T14:21:55;8.57;;;6.38;;
57441;SDS011;43284;47.042;15.498;2023-06-19T14:24:20;12.57;;;6.65;;